Time;durP1;ratioP1;P1;durP2;ratioP2;P2;SDS_P1;SDS_P2;PMS_P1;PMS_P2;Temp;Humidity;BMP_temperature;BMP_pressure;BME280_temperature;BME280_humidity;BME280_pressure;Samples;Min_cycle;Max_cycle;Signal;HPM_P1;HPM_P2
2024/03/17 00:00:45;;;;;;;;;;;;;;;15.57;47.95;101240.81;5045866;28;1150;-43
2024/03/17 00:03:10;;;;;;;;;;;;;;;16.53;47.41;101236.69;5046542;28;1159;-46
2024/03/17 00:05:36;;;;;;;;;;;;;;;16.65;46.90;101240.31;5058589;28;1143;-45
2024/03/17 00:08:04;;;;;;;;;;;;;;;15.58;48.27;101238.06;5051425;28;1039;-44
2024/03/17 00:10:34;;;;;;;;;;;;;;;15.26;47.24;101238.25;5051869;28;2526;-49
2024/03/17 00:12:59;;;;;;;;;;;;;;;15.90;48.46;101237.91;5052685;28;1163;-46
2024/03/17 00:15:25;;;;;;;;;;;;;;;16.69;46.73;101235.66;5051433;28;1065;-48
2024/03/17 00:17:50;;;;;;;;;;;;;;;15.52;47.99;101230.50;5039660;28;2032;-48
2024/03/17 00:20:19;;;;;;;;;;;;;;;15.34;47.12;101235.97;5045646;28;850;-46
2024/03/17 00:22:46;;;;;;;;;;;;;;;15.10;47.00;101225.06;5058518;28;1090;-45
2024/03/17 00:25:12;;;;;;;;;;;;;;;14.95;46.13;101232.09;5046511;28;1123;-50
2024/03/17 00:27:40;;;;;;;;;;;;;;;14.75;46.07;101226.09;5058570;28;1094;-48
2024/03/17 00:30:12;;;;;;;;;;;;;;;15.64;47.64;101227.13;5058599;28;1071;-46
2024/03/17 00:32:38;;;;;;;;;;;;;;;15.93;47.51;101226.25;5050566;28;1032;-47
2024/03/17 00:35:06;;;;;;;;;;;;;;;15.22;48.12;101231.41;5058501;28;1098;-46
2024/03/17 00:37:32;;;;;;;;;;;;;;;15.44;48.25;101225.69;5058433;28;1011;-49
2024/03/17 00:39:59;;;;;;;;;;;;;;;15.96;47.50;101227.84;5054570;28;2699;-48
2024/03/17 00:42:24;;;;;;;;;;;;;;;15.28;47.92;101231.06;5047188;28;1083;-47
2024/03/17 00:44:50;;;;;;;;;;;;;;;16.18;47.95;101229.19;5048445;28;1212;-44
2024/03/17 00:47:16;;;;;;;;;;;;;;;16.33;47.29;101222.03;5055684;28;1126;-47
2024/03/17 00:49:41;;;;;;;;;;;;;;;15.40;48.15;101232.09;5038520;28;1110;-49
2024/03/17 00:52:07;;;;;;;;;;;;;;;15.12;47.38;101221.34;5053691;28;1127;-48
2024/03/17 00:54:33;;;;;;;;;;;;;;;16.43;47.83;101219.66;5049667;28;1100;-47
2024/03/17 00:56:58;;;;;;;;;;;;;;;15.45;48.03;101223.88;5048696;28;1232;-48
2024/03/17 00:59:24;;;;;;;;;;;;;;;16.27;47.71;101228.59;5049209;28;1973;-47
2024/03/17 01:01:49;;;;;;;;;;;;;;;16.48;47.07;101223.69;5053224;28;1194;-46
2024/03/17 01:04:15;;;;;;;;;;;;;;;15.53;47.75;101224.28;5057619;28;1023;-46
2024/03/17 01:06:41;;;;;;;;;;;;;;;16.19;48.22;101225.56;5057887;28;1097;-47
2024/03/17 01:09:08;;;;;;;;;;;;;;;16.08;47.81;101221.78;5055468;28;929;-47
2024/03/17 01:11:33;;;;;;;;;;;;;;;15.43;47.62;101219.50;5031264;28;2446;-48
2024/03/17 01:13:59;;;;;;;;;;;;;;;15.20;46.88;101220.06;5049239;28;1210;-47
2024/03/17 01:16:24;;;;;;;;;;;;;;;15.09;46.51;101213.59;5051006;28;1100;-49
2024/03/17 01:18:50;;;;;;;;;;;;;;;16.69;47.15;101212.63;5037970;28;1899;-47
2024/03/17 01:21:15;;;;;;;;;;;;;;;15.48;48.30;101207.78;5042851;28;1035;-46
2024/03/17 01:23:41;;;;;;;;;;;;;;;15.16;47.31;101208.78;5031159;28;1000;-44
2024/03/17 01:26:07;;;;;;;;;;;;;;;14.97;47.05;101204.56;5037475;28;1191;-44
2024/03/17 01:28:32;;;;;;;;;;;;;;;14.83;46.06;101200.06;5045930;28;1031;-46
2024/03/17 01:30:58;;;;;;;;;;;;;;;15.36;47.10;101198.78;5057149;28;1115;-45
2024/03/17 01:33:23;;;;;;;;;;;;;;;15.16;47.40;101206.97;5053733;28;897;-48
2024/03/17 01:35:49;;;;;;;;;;;;;;;16.88;46.41;101203.44;5052709;28;1116;-48
2024/03/17 01:38:15;;;;;;;;;;;;;;;17.23;45.92;101200.19;5057252;28;1905;-42
2024/03/17 01:40:40;;;;;;;;;;;;;;;15.78;48.21;101202.38;5056842;28;2567;-45
2024/03/17 01:43:09;;;;;;;;;;;;;;;15.41;47.19;101202.00;5057689;28;1115;-48
2024/03/17 01:45:35;;;;;;;;;;;;;;;15.16;46.86;101206.97;5055763;28;1059;-48
2024/03/17 01:48:01;;;;;;;;;;;;;;;14.91;46.34;101204.94;5056884;28;1105;-48
2024/03/17 01:50:36;;;;;;;;;;;;;;;16.43;47.59;101199.25;5056923;28;1106;-44
2024/03/17 01:53:04;;;;;;;;;;;;;;;15.38;47.93;101194.25;5057432;28;1513;-48
2024/03/17 01:55:29;;;;;;;;;;;;;;;15.09;47.22;101194.19;5057256;28;1206;-48
2024/03/17 01:57:55;;;;;;;;;;;;;;;14.94;46.66;101196.81;5055779;28;1910;-47
2024/03/17 02:00:21;;;;;;;;;;;;;;;14.75;46.56;101200.47;5056100;28;1103;-50
2024/03/17 02:02:46;;;;;;;;;;;;;;;16.40;47.48;101183.50;5056907;28;1121;-50
2024/03/17 02:05:13;;;;;;;;;;;;;;;16.18;47.41;101187.59;5056671;28;1043;-47
2024/03/17 02:07:38;;;;;;;;;;;;;;;15.41;47.83;101189.59;5057231;28;1236;-47
2024/03/17 02:10:05;;;;;;;;;;;;;;;15.08;47.21;101195.13;5056201;28;2437;-47
2024/03/17 02:12:31;;;;;;;;;;;;;;;15.08;47.79;101200.44;5056850;28;1051;-48
2024/03/17 02:14:57;;;;;;;;;;;;;;;16.65;46.51;101188.06;5056370;28;1110;-49
2024/03/17 02:17:25;;;;;;;;;;;;;;;15.39;48.22;101185.34;5056471;28;1062;-50
2024/03/17 02:19:50;;;;;;;;;;;;;;;17.25;45.98;101192.97;5056418;28;1979;-47
2024/03/17 02:22:17;;;;;;;;;;;;;;;16.49;47.12;101196.19;5056152;28;872;-48
2024/03/17 02:24:42;;;;;;;;;;;;;;;15.60;47.86;101188.47;5056508;28;1182;-50
2024/03/17 02:27:08;;;;;;;;;;;;;;;15.33;47.10;101189.19;5056466;28;1262;-49
2024/03/17 02:29:36;;;;;;;;;;;;;;;15.17;46.71;101187.50;5056724;28;1007;-50
2024/03/17 02:32:07;;;;;;;;;;;;;;;14.91;45.93;101196.97;5056689;28;1015;-47
2024/03/17 02:34:35;;;;;;;;;;;;;;;16.68;46.54;101189.69;5056274;28;1063;-50
2024/03/17 02:37:02;;;;;;;;;;;;;;;15.53;47.82;101190.63;5056307;28;1071;-51
2024/03/17 02:39:33;;;;;;;;;;;;;;;15.11;47.25;101187.00;5055757;28;1957;-48
2024/03/17 02:42:02;;;;;;;;;;;;;;;15.40;48.04;101189.66;5056279;28;2743;-50
2024/03/17 02:44:28;;;;;;;;;;;;;;;16.62;46.87;101184.75;5055819;28;1118;-50
2024/03/17 02:46:53;;;;;;;;;;;;;;;15.42;48.02;101183.34;5055926;28;940;-49
2024/03/17 02:49:19;;;;;;;;;;;;;;;15.15;47.14;101176.13;5056400;28;1099;-50
2024/03/17 02:51:45;;;;;;;;;;;;;;;14.94;46.80;101167.66;5056222;28;1051;-48
2024/03/17 02:54:10;;;;;;;;;;;;;;;14.90;46.95;101174.94;5055490;28;1122;-49
2024/03/17 02:56:36;;;;;;;;;;;;;;;16.65;46.35;101176.56;5055825;28;1055;-49
2024/03/17 02:59:01;;;;;;;;;;;;;;;15.39;48.02;101174.72;5055845;28;1906;-50
2024/03/17 03:01:27;;;;;;;;;;;;;;;17.23;46.16;101170.94;5055958;28;1173;-50
2024/03/17 03:03:52;;;;;;;;;;;;;;;16.72;46.93;101169.06;5055799;28;1079;-45
2024/03/17 03:06:19;;;;;;;;;;;;;;;15.60;47.71;101172.53;5056123;28;1003;-49
2024/03/17 03:08:48;;;;;;;;;;;;;;;15.33;47.18;101172.47;5055402;28;1062;-50
2024/03/17 03:11:14;;;;;;;;;;;;;;;15.16;46.81;101174.34;5056100;28;1942;-48
2024/03/17 03:13:40;;;;;;;;;;;;;;;15.01;46.30;101170.81;5055510;28;1174;-48
2024/03/17 03:16:07;;;;;;;;;;;;;;;16.11;47.71;101173.00;5055973;28;1047;-50
2024/03/17 03:18:33;;;;;;;;;;;;;;;15.98;47.80;101173.75;5055672;28;1977;-49
2024/03/17 03:21:00;;;;;;;;;;;;;;;15.32;47.79;101176.91;5055174;28;1019;-46
2024/03/17 03:23:26;;;;;;;;;;;;;;;15.01;47.16;101184.06;5049009;28;2456;-49
2024/03/17 03:25:56;;;;;;;;;;;;;;;14.94;46.39;101183.56;5055763;28;1226;-45
2024/03/17 03:28:22;;;;;;;;;;;;;;;16.47;47.51;101182.16;5074642;28;1082;-49
2024/03/17 03:30:48;;;;;;;;;;;;;;;16.01;47.22;101184.22;5056154;28;1157;-49
2024/03/17 03:33:13;;;;;;;;;;;;;;;15.32;47.79;101187.50;5055418;28;1171;-47
2024/03/17 03:35:39;;;;;;;;;;;;;;;15.25;48.26;101184.38;5055775;28;1206;-47
2024/03/17 03:38:05;;;;;;;;;;;;;;;16.91;46.19;101192.59;5055767;28;1902;-44
2024/03/17 03:40:32;;;;;;;;;;;;;;;15.59;47.77;101189.41;5055910;28;1012;-46
2024/03/17 03:42:58;;;;;;;;;;;;;;;15.22;47.00;101192.50;5042086;28;1048;-46
2024/03/17 03:45:23;;;;;;;;;;;;;;;16.02;47.24;101190.34;5055896;28;1079;-49
2024/03/17 03:47:49;;;;;;;;;;;;;;;15.16;48.06;101193.72;5055778;28;1146;-48
2024/03/17 03:50:15;;;;;;;;;;;;;;;15.15;47.90;101194.66;5055450;28;1024;-47
2024/03/17 03:52:41;;;;;;;;;;;;;;;16.93;45.85;101211.09;5055491;28;1206;-48
2024/03/17 03:55:10;;;;;;;;;;;;;;;15.49;47.84;101204.19;5056007;28;1154;-50
2024/03/17 03:57:38;;;;;;;;;;;;;;;15.17;47.37;101213.13;5042168;28;1069;-48
2024/03/17 04:00:13;;;;;;;;;;;;;;;15.84;47.57;101205.59;5055275;28;1987;-46
2024/03/17 04:02:39;;;;;;;;;;;;;;;15.61;47.29;101211.41;5055733;28;1126;-48
2024/03/17 04:05:05;;;;;;;;;;;;;;;15.13;47.23;101204.50;5057832;28;1043;-47
2024/03/17 04:07:30;;;;;;;;;;;;;;;14.96;46.36;101204.66;5059205;28;1194;-47
2024/03/17 04:09:56;;;;;;;;;;;;;;;14.83;46.13;101208.00;5059071;28;1130;-45
2024/03/17 04:12:21;;;;;;;;;;;;;;;16.29;46.66;101208.13;5059071;28;1062;-47
2024/03/17 04:14:52;;;;;;;;;;;;;;;15.26;47.29;101211.72;5059406;28;1035;-49
2024/03/17 04:17:18;;;;;;;;;;;;;;;14.87;47.08;101211.34;5059588;28;1016;-50
2024/03/17 04:19:45;;;;;;;;;;;;;;;16.57;46.29;101216.06;5059291;28;1914;-50
2024/03/17 04:22:11;;;;;;;;;;;;;;;15.46;47.52;101214.97;5058915;28;1055;-52
2024/03/17 04:24:37;;;;;;;;;;;;;;;15.02;47.47;101212.25;5058428;28;1443;-50
2024/03/17 04:27:04;;;;;;;;;;;;;;;16.20;46.99;101214.84;5059199;28;1047;-52
2024/03/17 04:29:29;;;;;;;;;;;;;;;15.86;47.12;101220.47;5059104;28;1167;-49
2024/03/17 04:31:55;;;;;;;;;;;;;;;15.22;47.33;101228.75;5058455;28;2343;-50
2024/03/17 04:34:21;;;;;;;;;;;;;;;15.05;47.21;101226.16;5058201;28;2112;-46
2024/03/17 04:36:46;;;;;;;;;;;;;;;16.95;45.44;101228.63;5047875;28;2135;-50
2024/03/17 04:39:12;;;;;;;;;;;;;;;15.49;47.68;101236.00;5050081;28;2075;-52
2024/03/17 04:41:40;;;;;;;;;;;;;;;15.12;47.34;101234.59;5051991;28;2182;-51
2024/03/17 04:44:06;;;;;;;;;;;;;;;14.90;46.77;101238.50;5052717;28;2204;-49
2024/03/17 04:46:32;;;;;;;;;;;;;;;14.98;47.08;101231.91;5053208;28;1908;-49
2024/03/17 04:48:58;;;;;;;;;;;;;;;16.44;46.14;101232.81;5053132;28;1090;-50
2024/03/17 04:51:23;;;;;;;;;;;;;;;15.23;47.80;101236.59;5053358;28;1040;-49
2024/03/17 04:53:49;;;;;;;;;;;;;;;14.94;47.11;101239.19;5040070;28;1003;-46
2024/03/17 04:56:14;;;;;;;;;;;;;;;15.98;47.58;101245.41;5050473;28;1524;-49
2024/03/17 04:58:40;;;;;;;;;;;;;;;15.99;46.58;101239.16;5041878;28;1981;-48
2024/03/17 05:01:06;;;;;;;;;;;;;;;15.67;48.32;101250.78;5037870;28;1403;-50
2024/03/17 05:03:32;;;;;;;;;;;;;;;17.49;44.67;101242.78;5038169;28;1048;-52
2024/03/17 05:06:00;;;;;;;;;;;;;;;15.83;47.44;101244.53;5051500;28;1047;-50
2024/03/17 05:08:26;;;;;;;;;;;;;;;15.33;46.94;101250.16;5038098;28;1119;-49
2024/03/17 05:11:00;;;;;;;;;;;;;;;16.70;45.38;101253.34;5041071;28;1103;-49
2024/03/17 05:13:27;;;;;;;;;;;;;;;16.57;45.17;101256.78;5028057;28;1321;-50
2024/03/17 05:15:53;;;;;;;;;;;;;;;16.12;46.00;101257.81;5052989;28;2760;-52
2024/03/17 05:18:19;;;;;;;;;;;;;;;15.79;46.50;101258.94;5057545;28;1915;-47
2024/03/17 05:20:47;;;;;;;;;;;;;;;15.61;47.22;101259.13;5044215;28;1139;-48
2024/03/17 05:23:13;;;;;;;;;;;;;;;15.46;47.59;101263.56;5044821;28;861;-50
2024/03/17 05:25:39;;;;;;;;;;;;;;;15.28;47.79;101265.50;5050950;28;1142;-47
2024/03/17 05:28:05;;;;;;;;;;;;;;;15.15;47.76;101260.06;5057542;28;1079;-48
2024/03/17 05:30:30;;;;;;;;;;;;;;;15.07;48.27;101273.75;5057953;28;1074;-48
2024/03/17 05:32:56;;;;;;;;;;;;;;;16.67;44.74;101266.78;5044004;28;1114;-50
2024/03/17 05:35:21;;;;;;;;;;;;;;;17.16;43.47;101272.50;5056159;28;1048;-47
2024/03/17 05:37:48;;;;;;;;;;;;;;;16.08;45.58;101263.44;5044266;28;1163;-49
2024/03/17 05:40:14;;;;;;;;;;;;;;;15.68;46.60;101262.28;5057154;28;1901;-45
2024/03/17 05:42:43;;;;;;;;;;;;;;;15.41;47.29;101269.13;5057430;28;1063;-47
2024/03/17 05:45:10;;;;;;;;;;;;;;;15.18;47.70;101281.94;5045411;28;996;-46
2024/03/17 05:47:41;;;;;;;;;;;;;;;16.05;46.02;101268.94;5040941;28;2775;-48
2024/03/17 05:50:06;;;;;;;;;;;;;;;17.24;43.18;101279.03;5037185;28;995;-46
2024/03/17 05:52:32;;;;;;;;;;;;;;;16.31;45.08;101279.69;5056497;28;1159;-45
2024/03/17 05:54:57;;;;;;;;;;;;;;;15.71;46.68;101279.78;5044368;28;1159;-47
2024/03/17 05:57:24;;;;;;;;;;;;;;;15.47;47.30;101282.94;5043273;28;1128;-46
2024/03/17 05:59:49;;;;;;;;;;;;;;;15.33;47.57;101284.63;5041811;28;1969;-46
2024/03/17 06:02:15;;;;;;;;;;;;;;;16.91;44.20;101282.94;5050021;28;1202;-43
2024/03/17 06:04:41;;;;;;;;;;;;;;;16.80;44.00;101278.31;5049987;28;1043;-46
2024/03/17 06:07:07;;;;;;;;;;;;;;;15.95;45.94;101290.69;5038641;28;1047;-45
2024/03/17 06:09:32;;;;;;;;;;;;;;;15.61;46.91;101290.09;5056970;28;1086;-49
2024/03/17 06:11:58;;;;;;;;;;;;;;;15.40;47.23;101288.63;5046071;28;1161;-46
2024/03/17 06:14:23;;;;;;;;;;;;;;;15.97;46.10;101294.09;5036997;28;1051;-49
2024/03/17 06:16:49;;;;;;;;;;;;;;;17.27;43.26;101293.91;5049151;28;2613;-50
2024/03/17 06:19:15;;;;;;;;;;;;;;;16.85;43.71;101297.47;5056735;28;1905;-48
2024/03/17 06:21:41;;;;;;;;;;;;;;;15.97;45.87;101288.78;5050482;28;1062;-47
2024/03/17 06:24:06;;;;;;;;;;;;;;;15.69;46.43;101295.78;5051965;28;1062;-47
2024/03/17 06:26:34;;;;;;;;;;;;;;;15.45;47.34;101298.13;5051303;28;1109;-47
2024/03/17 06:29:02;;;;;;;;;;;;;;;15.23;47.79;101297.56;5056467;28;1018;-46
2024/03/17 06:31:28;;;;;;;;;;;;;;;16.66;44.57;101303.16;5043052;28;1139;-48
2024/03/17 06:33:53;;;;;;;;;;;;;;;17.50;42.57;101302.13;5044220;28;1076;-47
2024/03/17 06:36:19;;;;;;;;;;;;;;;16.49;44.55;101302.44;5052748;28;1154;-50
2024/03/17 06:38:45;;;;;;;;;;;;;;;15.99;46.07;101297.53;5056224;28;1967;-47
2024/03/17 06:41:10;;;;;;;;;;;;;;;15.66;46.74;101302.13;5056460;28;1331;-47
2024/03/17 06:43:36;;;;;;;;;;;;;;;15.39;47.36;101309.94;5056450;28;1027;-43
2024/03/17 06:46:01;;;;;;;;;;;;;;;15.22;47.73;101301.16;5056671;28;2558;-44
2024/03/17 06:48:27;;;;;;;;;;;;;;;16.35;45.57;101302.47;5056056;28;865;-50
2024/03/17 06:50:54;;;;;;;;;;;;;;;17.34;43.09;101300.53;5056484;28;1080;-48
2024/03/17 06:53:23;;;;;;;;;;;;;;;16.27;45.06;101294.97;5056019;28;1039;-46
2024/03/17 06:55:55;;;;;;;;;;;;;;;15.78;46.35;101307.66;5055981;28;1225;-48
2024/03/17 06:58:22;;;;;;;;;;;;;;;15.67;46.63;101311.81;5055862;28;1906;-48
2024/03/17 07:00:58;;;;;;;;;;;;;;;15.56;47.25;101306.28;5054878;28;900;-46
2024/03/17 07:03:25;;;;;;;;;;;;;;;16.68;44.67;101300.41;5056085;28;1115;-46
2024/03/17 07:06:02;;;;;;;;;;;;;;;17.08;43.61;101308.38;5056217;28;1112;-45
2024/03/17 07:08:27;;;;;;;;;;;;;;;16.11;45.86;101314.53;5055922;28;1111;-45
2024/03/17 07:11:03;;;;;;;;;;;;;;;15.77;46.50;101312.09;5055501;28;1134;-44
2024/03/17 07:13:29;;;;;;;;;;;;;;;15.47;47.43;101310.34;5056040;28;1035;-47
2024/03/17 07:15:54;;;;;;;;;;;;;;;15.33;47.56;101311.13;5061305;28;2427;-47
2024/03/17 07:18:20;;;;;;;;;;;;;;;16.73;44.77;101308.91;5057267;28;1975;-47
2024/03/17 07:20:47;;;;;;;;;;;;;;;17.42;42.82;101307.97;5055741;28;1043;-44
2024/03/17 07:23:16;;;;;;;;;;;;;;;16.36;45.27;101301.50;5055412;28;1083;-43
2024/03/17 07:25:42;;;;;;;;;;;;;;;15.87;46.42;101304.44;5056069;28;1047;-48
2024/03/17 07:28:08;;;;;;;;;;;;;;;15.65;46.70;101304.84;5054848;28;1156;-48
2024/03/17 07:30:34;;;;;;;;;;;;;;;15.42;47.78;101305.31;5055922;28;1047;-45
2024/03/17 07:32:59;;;;;;;;;;;;;;;16.81;44.56;101303.97;5055874;28;1154;-45
2024/03/17 07:35:25;;;;;;;;;;;;;;;17.55;42.75;101302.66;5055481;28;1059;-46
2024/03/17 07:37:50;;;;;;;;;;;;;;;16.53;45.08;101305.75;5055852;28;1182;-46
2024/03/17 07:40:16;;;;;;;;;;;;;;;15.97;46.22;101290.59;5059035;28;1967;-45
2024/03/17 07:42:42;;;;;;;;;;;;;;;15.70;47.12;101308.09;5060020;28;1048;-46
2024/03/17 07:45:08;;;;;;;;;;;;;;;15.51;47.38;101300.41;5059940;28;976;-45
2024/03/17 07:47:35;;;;;;;;;;;;;;;16.85;44.52;101294.00;5059587;28;2794;-48
2024/03/17 07:50:05;;;;;;;;;;;;;;;17.60;42.59;101287.25;5059605;28;1036;-46
2024/03/17 07:52:34;;;;;;;;;;;;;;;16.57;44.96;101290.44;5059652;28;1071;-48
2024/03/17 07:54:59;;;;;;;;;;;;;;;15.99;46.20;101292.25;5059692;28;1047;-46
2024/03/17 07:57:25;;;;;;;;;;;;;;;15.71;46.84;101293.03;5059473;28;1024;-45
2024/03/17 07:59:51;;;;;;;;;;;;;;;15.47;47.60;101286.47;5058863;28;1909;-43
2024/03/17 08:02:17;;;;;;;;;;;;;;;15.46;47.65;101282.13;5059450;28;1146;-46
2024/03/17 08:04:44;;;;;;;;;;;;;;;16.97;44.47;101279.88;5059604;28;1163;-45
2024/03/17 08:07:09;;;;;;;;;;;;;;;17.16;43.48;101277.81;5057816;28;1211;-45
2024/03/17 08:09:35;;;;;;;;;;;;;;;16.23;45.88;101278.38;5059273;28;980;-46
2024/03/17 08:12:02;;;;;;;;;;;;;;;15.84;46.91;101280.75;5058738;28;1138;-46
2024/03/17 08:14:27;;;;;;;;;;;;;;;15.70;47.22;101275.44;5059066;28;1016;-45
2024/03/17 08:16:53;;;;;;;;;;;;;;;15.54;47.53;101277.22;5059137;28;2416;-49
2024/03/17 08:19:19;;;;;;;;;;;;;;;15.61;47.22;101275.03;5059081;28;1902;-46
2024/03/17 08:21:45;;;;;;;;;;;;;;;16.30;45.96;101273.53;5058807;28;1202;-43
2024/03/17 08:24:10;;;;;;;;;;;;;;;17.47;43.36;101271.28;5058432;28;1039;-45
2024/03/17 08:26:36;;;;;;;;;;;;;;;16.50;45.07;101271.38;5058772;28;1420;-46
2024/03/17 08:29:01;;;;;;;;;;;;;;;15.91;46.54;101271.44;5058929;28;1214;-43
2024/03/17 08:31:27;;;;;;;;;;;;;;;15.70;47.10;101268.31;5058959;28;1238;-42
2024/03/17 08:33:53;;;;;;;;;;;;;;;15.45;48.07;101261.84;5059140;28;1101;-43
2024/03/17 08:36:20;;;;;;;;;;;;;;;15.69;47.43;101263.09;5058497;28;1083;-42
2024/03/17 08:38:45;;;;;;;;;;;;;;;17.13;44.17;101260.28;5058619;28;1894;-44
2024/03/17 08:41:13;;;;;;;;;;;;;;;17.06;43.97;101257.16;5058567;28;1141;-47
2024/03/17 08:43:40;;;;;;;;;;;;;;;16.23;45.91;101251.00;5057297;28;1226;-47
2024/03/17 08:46:07;;;;;;;;;;;;;;;15.86;46.77;101251.47;5058462;28;2457;-44
2024/03/17 08:48:34;;;;;;;;;;;;;;;15.58;47.68;101251.34;5058340;28;1074;-46
2024/03/17 08:51:00;;;;;;;;;;;;;;;15.50;47.85;101243.84;5056863;28;925;-47
2024/03/17 08:53:26;;;;;;;;;;;;;;;15.51;48.18;101250.03;5058085;28;1027;-45
2024/03/17 08:55:51;;;;;;;;;;;;;;;16.90;44.62;101246.69;5058343;28;1138;-47
2024/03/17 08:58:17;;;;;;;;;;;;;;;17.46;43.31;101244.78;5058007;28;1983;-46
2024/03/17 09:00:43;;;;;;;;;;;;;;;16.64;45.10;101236.84;5057963;28;1146;-44
2024/03/17 09:03:12;;;;;;;;;;;;;;;16.01;46.79;101239.06;5058332;28;1133;-46
2024/03/17 09:05:38;;;;;;;;;;;;;;;16.36;46.31;101230.66;5057816;28;978;-47
2024/03/17 09:08:04;;;;;;;;;;;;;;;15.72;47.52;101226.63;5058139;28;1111;-48
2024/03/17 09:10:29;;;;;;;;;;;;;;;15.66;48.02;101238.47;5058501;28;1059;-47
2024/03/17 09:12:55;;;;;;;;;;;;;;;16.76;45.34;101229.88;5057538;28;1080;-49
2024/03/17 09:15:20;;;;;;;;;;;;;;;17.50;43.37;101232.97;5057732;28;2006;-46
2024/03/17 09:17:46;;;;;;;;;;;;;;;16.47;45.92;101227.31;5058028;28;1055;-45
2024/03/17 09:20:12;;;;;;;;;;;;;;;16.05;47.13;101218.50;5044730;28;1993;-46
2024/03/17 09:22:41;;;;;;;;;;;;;;;15.75;47.74;101213.19;5058207;28;1059;-47
2024/03/17 09:25:09;;;;;;;;;;;;;;;14.79;47.94;101077.53;5057452;28;1002;-47
2024/03/17 09:27:38;;;;;;;;;;;;;;;15.47;48.08;101212.22;5058050;28;1122;-47
2024/03/17 09:30:09;;;;;;;;;;;;;;;15.87;47.29;101216.00;5057860;28;1118;-47
2024/03/17 09:32:37;;;;;;;;;;;;;;;17.24;44.37;101211.69;5058311;28;1086;-46
2024/03/17 09:35:04;;;;;;;;;;;;;;;16.98;44.46;101209.81;5056440;28;1163;-46
2024/03/17 09:37:31;;;;;;;;;;;;;;;16.29;46.17;101208.13;5057234;28;1067;-46
2024/03/17 09:39:58;;;;;;;;;;;;;;;15.90;47.00;101210.50;5057526;28;1991;-46
2024/03/17 09:42:23;;;;;;;;;;;;;;;15.67;47.76;101208.34;5057424;28;1035;-48
2024/03/17 09:44:49;;;;;;;;;;;;;;;15.50;47.92;101197.91;5057347;28;1035;-47
2024/03/17 09:47:21;;;;;;;;;;;;;;;15.36;48.68;101201.44;5054388;28;3077;-48
2024/03/17 09:49:50;;;;;;;;;;;;;;;16.40;46.47;101195.00;5057272;28;900;-47
2024/03/17 09:52:22;;;;;;;;;;;;;;;17.51;43.70;101192.13;5057296;28;1047;-48
2024/03/17 09:54:58;;;;;;;;;;;;;;;16.82;45.00;101194.06;5057283;28;1141;-42
2024/03/17 09:57:24;;;;;;;;;;;;;;;16.17;46.84;101196.47;5056091;28;1024;-45
2024/03/17 09:59:50;;;;;;;;;;;;;;;15.86;47.14;101193.94;5056106;28;1988;-44
2024/03/17 10:02:16;;;;;;;;;;;;;;;15.58;47.91;101190.34;5056331;28;857;-47
2024/03/17 10:04:42;;;;;;;;;;;;;;;15.49;48.35;101183.81;5057102;28;1070;-47
2024/03/17 10:07:07;;;;;;;;;;;;;;;16.71;45.89;101181.50;5056895;28;1023;-48
2024/03/17 10:09:33;;;;;;;;;;;;;;;17.66;43.35;101182.22;5057159;28;1213;-45
2024/03/17 10:11:59;;;;;;;;;;;;;;;16.69;45.42;101182.53;5057486;28;1150;-45
2024/03/17 10:14:24;;;;;;;;;;;;;;;16.22;46.44;101175.81;5056253;28;1035;-43
2024/03/17 10:16:50;;;;;;;;;;;;;;;15.86;47.58;101174.53;5056576;28;2679;-47
2024/03/17 10:19:16;;;;;;;;;;;;;;;15.69;48.10;101175.56;5056841;28;1976;-49
2024/03/17 10:21:42;;;;;;;;;;;;;;;15.53;48.25;101172.06;5056546;28;1167;-48
2024/03/17 10:24:09;;;;;;;;;;;;;;;15.99;47.46;101164.00;5055252;28;1120;-47
2024/03/17 10:26:44;;;;;;;;;;;;;;;17.32;44.40;101171.28;5056655;28;1055;-49
2024/03/17 10:29:16;;;;;;;;;;;;;;;16.62;45.56;101175.00;5055024;28;1039;-46
2024/03/17 10:31:41;;;;;;;;;;;;;;;16.12;46.72;101166.72;5056394;28;1113;-45
2024/03/17 10:34:07;;;;;;;;;;;;;;;15.86;47.42;101171.88;5056654;28;1054;-44
2024/03/17 10:36:33;;;;;;;;;;;;;;;15.71;47.74;101163.06;5054782;28;1294;-47
2024/03/17 10:38:58;;;;;;;;;;;;;;;15.45;48.53;101166.38;5056535;28;1971;-47
2024/03/17 10:41:24;;;;;;;;;;;;;;;15.92;47.75;101171.47;5056239;28;1019;-44
2024/03/17 10:43:51;;;;;;;;;;;;;;;17.27;44.42;101171.59;5035136;28;1072;-48
2024/03/17 10:46:17;;;;;;;;;;;;;;;17.32;43.91;101165.94;5034958;28;2735;-46
2024/03/17 10:48:42;;;;;;;;;;;;;;;16.51;45.93;101159.78;5034751;28;1144;-47
2024/03/17 10:51:09;;;;;;;;;;;;;;;16.03;47.09;101161.06;5035186;28;1056;-47
2024/03/17 10:53:36;;;;;;;;;;;;;;;15.83;47.57;101158.81;5035184;28;1198;-47
2024/03/17 10:56:08;;;;;;;;;;;;;;;15.63;48.00;101158.25;5034862;28;1111;-48
2024/03/17 10:58:38;;;;;;;;;;;;;;;15.63;48.46;101155.59;5035846;28;1991;-48
2024/03/17 11:01:04;;;;;;;;;;;;;;;17.10;45.00;101155.00;5036119;28;1027;-50
2024/03/17 11:03:33;;;;;;;;;;;;;;;17.20;44.36;101149.06;5034606;28;1127;-49
2024/03/17 11:05:59;;;;;;;;;;;;;;;16.39;46.38;101148.16;5035640;28;1035;-49
2024/03/17 11:08:25;;;;;;;;;;;;;;;16.03;47.39;101137.16;5036087;28;1036;-48
2024/03/17 11:10:54;;;;;;;;;;;;;;;15.78;48.04;101132.56;5035204;28;1151;-47
2024/03/17 11:13:23;;;;;;;;;;;;;;;15.63;48.39;101145.84;5035237;28;1092;-43
2024/03/17 11:15:50;;;;;;;;;;;;;;;15.53;48.47;101144.72;5035605;28;2435;-49
2024/03/17 11:18:19;;;;;;;;;;;;;;;16.96;45.47;101144.44;5035934;28;1980;-45
2024/03/17 11:21:15;;;;;;;;;;;;;;;17.55;43.70;101131.59;5036149;28;1098;-46
2024/03/17 11:23:40;;;;;;;;;;;;;;;16.43;46.42;101121.41;5024815;28;1009;-46
2024/03/17 11:26:06;;;;;;;;;;;;;;;16.06;47.16;101120.22;5035634;28;1027;-46
2024/03/17 11:28:41;;;;;;;;;;;;;;;15.77;48.09;101121.09;5036458;28;1116;-45
2024/03/17 11:31:26;;;;;;;;;;;;;;;15.64;48.23;101121.03;5035701;28;1083;-50
2024/03/17 11:33:51;;;;;;;;;;;;;;;15.51;48.44;101120.09;5036050;28;1008;-46
2024/03/17 11:36:23;;;;;;;;;;;;;;;16.29;46.87;101112.53;5035390;28;1091;-45
2024/03/17 11:38:55;;;;;;;;;;;;;;;17.49;44.23;101111.59;5035378;28;1977;-46
2024/03/17 11:41:32;;;;;;;;;;;;;;;16.85;45.25;101113.31;5023307;28;1037;-47
2024/03/17 11:44:18;;;;;;;;;;;;;;;16.20;46.88;101105.19;5035683;28;1144;-47
2024/03/17 11:46:53;;;;;;;;;;;;;;;15.85;47.71;101098.53;5035539;28;2762;-46
2024/03/17 11:49:23;;;;;;;;;;;;;;;15.66;48.20;101099.72;5035483;28;1183;-49
2024/03/17 11:51:49;;;;;;;;;;;;;;;15.48;48.69;101097.25;5018088;28;1118;-46
2024/03/17 11:54:18;;;;;;;;;;;;;;;16.15;47.51;101092.19;5017943;28;1020;-47
2024/03/17 11:56:50;;;;;;;;;;;;;;;17.44;44.28;101090.63;5050293;28;1024;-42
2024/03/17 11:59:19;;;;;;;;;;;;;;;17.17;44.66;101086.31;5035640;28;1981;-50
2024/03/17 12:01:47;;;;;;;;;;;;;;;16.36;46.62;101086.44;5035144;28;1063;-46
2024/03/17 12:04:22;;;;;;;;;;;;;;;15.95;47.48;101090.84;5035252;28;1095;-46
2024/03/17 12:06:51;;;;;;;;;;;;;;;15.81;48.14;101091.72;5035173;28;1040;-47
2024/03/17 12:09:17;;;;;;;;;;;;;;;15.57;48.42;101076.41;5035661;28;1024;-47
2024/03/17 12:11:42;;;;;;;;;;;;;;;15.50;48.61;101084.75;5035494;28;1096;-45
2024/03/17 12:14:11;;;;;;;;;;;;;;;16.31;47.02;101085.88;5017357;28;1061;-45
2024/03/17 12:16:37;;;;;;;;;;;;;;;17.59;44.08;101079.84;5017469;28;2655;-44
2024/03/17 12:19:07;;;;;;;;;;;;;;;16.80;45.40;101083.53;5050412;28;1902;-42
2024/03/17 12:21:32;;;;;;;;;;;;;;;16.22;47.24;101076.72;5035061;28;1083;-43
2024/03/17 12:23:58;;;;;;;;;;;;;;;15.85;47.95;101079.97;5035513;28;1171;-46
2024/03/17 12:26:23;;;;;;;;;;;;;;;15.67;48.19;101074.88;5037659;28;1110;-45
2024/03/17 12:28:49;;;;;;;;;;;;;;;15.56;48.58;101070.28;5054339;28;1094;-46
2024/03/17 12:31:16;;;;;;;;;;;;;;;15.41;48.70;101080.06;5038628;28;1140;-43
2024/03/17 12:33:44;;;;;;;;;;;;;;;16.47;46.71;101067.97;5039017;28;1138;-46
2024/03/17 12:36:12;;;;;;;;;;;;;;;17.57;44.14;101068.47;5030363;28;1146;-43
2024/03/17 12:38:38;;;;;;;;;;;;;;;16.68;45.78;101056.00;5069940;28;1902;-45
2024/03/17 12:41:07;;;;;;;;;;;;;;;16.15;47.01;101053.25;5038681;28;996;-42
2024/03/17 12:43:32;;;;;;;;;;;;;;;15.89;48.02;101053.13;5038780;28;1007;-48
2024/03/17 12:45:58;;;;;;;;;;;;;;;15.66;48.52;101062.59;5037030;28;2464;-44